FredonyerEastRWIS Atmospheric Data: 03/26/2020 Summary  Detailed Graphs  Station List

  Temperature     Wind Precipitation Visibility
Timestamp Air Wet
Bulb
Dew-
point
24-hr
Max
24-hr
Min
Relative
Humidity
Atmospheric
Pressure
Avg
Speed
Avg
Dir
Spot
Speed
Spot
Dir
Max
Speed
Max
Dir
  Rate Situation Start End 1 hr 3 hr 6 hr 12 hr 24 hr   Situation
Date Time °F °F °F °F °F % in Hg mph ° mph ° mph ° Y/N in/hr text Date Time Date Time in in in in in mi text
03/26/2020 12:08 AM 23.18 21.92 19.22 36.50 19.76 84.0 Not Reported 3.36 NW 3.36 W 4.70 NW No 0.000 No Precipitation 03/25/2020 01:58 PM 03/25/2020 02:03 PM 0.000 0.000 0.000 0.008 0.185 Not Reported Not Reported
03/26/2020 12:23 AM 22.28 21.38 19.04 36.50 19.76 86.0 Not Reported 2.01 NW 1.57 W 4.25 NW No 0.000 No Precipitation 03/25/2020 01:58 PM 03/25/2020 02:03 PM 0.000 0.000 0.000 0.004 0.181 Not Reported Not Reported
03/26/2020 12:38 AM 22.28 21.20 18.50 36.50 19.76 84.0 Not Reported 1.12 W 0.00 NE 5.59 NW No 0.000 No Precipitation 03/25/2020 01:58 PM 03/25/2020 02:03 PM 0.000 0.000 0.000 0.004 0.177 Not Reported Not Reported
03/26/2020 12:53 AM 19.76 18.86 16.88 36.50 19.76 88.0 Not Reported 1.79 NW 1.79 NW 2.46 NW No 0.000 No Precipitation 03/25/2020 01:58 PM 03/25/2020 02:03 PM 0.000 0.000 0.000 0.004 0.177 Not Reported Not Reported
03/26/2020 01:09 AM 17.78 17.24 15.80 36.50 17.78 91.0 Not Reported 1.12 W 1.12 NW 1.57 NW No 0.000 No Precipitation 03/25/2020 01:58 PM 03/25/2020 02:03 PM 0.000 0.000 0.000 0.004 0.169 Not Reported Not Reported
03/26/2020 01:23 AM 16.88 16.52 15.44 36.50 16.88 93.0 Not Reported 1.79 NW 0.00 NW 2.01 NW No 0.000 No Precipitation 03/25/2020 01:58 PM 03/25/2020 02:03 PM 0.000 0.000 0.000 0.004 0.169 Not Reported Not Reported
03/26/2020 01:39 AM 16.34 15.80 14.90 36.50 16.34 94.0 Not Reported 0.67 N 0.00 N 1.79 NW No 0.000 No Precipitation 03/25/2020 01:58 PM 03/25/2020 02:03 PM 0.000 0.000 0.000 0.004 0.169 Not Reported Not Reported
03/26/2020 01:53 AM 15.26 14.90 14.00 36.50 15.26 94.0 Not Reported 0.45 NW 1.12 NW 1.57 NW No 0.000 No Precipitation 03/25/2020 01:58 PM 03/25/2020 02:03 PM 0.000 0.000 0.000 0.004 0.169 Not Reported Not Reported
03/26/2020 02:08 AM 14.90 14.54 13.64 36.50 14.90 94.0 Not Reported 0.67 N 0.00 N 1.34 NW No 0.000 No Precipitation 03/25/2020 01:58 PM 03/25/2020 02:03 PM 0.000 0.000 0.000 0.000 0.169 Not Reported Not Reported
03/26/2020 02:23 AM 14.54 14.18 13.10 36.50 14.54 93.0 Not Reported 0.22 N 0.45 NW 2.01 N No 0.000 No Precipitation 03/25/2020 01:58 PM 03/25/2020 02:03 PM 0.000 0.000 0.000 0.000 0.169 Not Reported Not Reported
03/26/2020 02:38 AM 14.18 13.82 12.56 36.50 14.18 93.0 Not Reported 0.00 N 0.00 NW 1.57 NW No 0.000 No Precipitation 03/25/2020 01:58 PM 03/25/2020 02:03 PM 0.000 0.000 0.000 0.000 0.169 Not Reported Not Reported
03/26/2020 02:53 AM 13.28 12.92 11.48 36.50 13.28 92.0 Not Reported 0.00 NW 1.57 NW 1.57 NW No 0.000 No Precipitation 03/25/2020 01:58 PM 03/25/2020 02:03 PM 0.000 0.000 0.000 0.000 0.169 Not Reported Not Reported
03/26/2020 03:09 AM 12.92 12.56 11.12 36.50 12.92 92.0 Not Reported 0.45 NW 0.45 NW 0.89 S No 0.000 No Precipitation 03/25/2020 01:58 PM 03/25/2020 02:03 PM 0.000 0.000 0.000 0.000 0.169 Not Reported Not Reported
03/26/2020 03:23 AM 12.74 12.38 10.94 36.50 12.74 92.0 Not Reported 0.45 NW 0.00 NW 0.89 NW No 0.000 No Precipitation 03/25/2020 01:58 PM 03/25/2020 02:03 PM 0.000 0.000 0.000 0.000 0.169 Not Reported Not Reported
03/26/2020 03:38 AM 12.56 12.20 10.76 36.50 12.56 91.0 Not Reported 0.00 NW 0.00 NW 1.57 NW No 0.000 No Precipitation 03/25/2020 01:58 PM 03/25/2020 02:03 PM 0.000 0.000 0.000 0.000 0.169 Not Reported Not Reported
03/26/2020 03:53 AM 12.74 12.38 10.94 36.50 12.38 92.0 Not Reported 0.00 N 0.00 NW 1.34 NW No 0.000 No Precipitation 03/25/2020 01:58 PM 03/25/2020 02:03 PM 0.000 0.000 0.000 0.000 0.169 Not Reported Not Reported
03/26/2020 04:09 AM 12.02 11.48 10.22 36.50 12.02 91.0 Not Reported 0.00 N 0.00 NW 1.57 NW No 0.000 No Precipitation 03/25/2020 01:58 PM 03/25/2020 02:03 PM 0.000 0.000 0.000 0.000 0.169 Not Reported Not Reported
03/26/2020 04:23 AM 11.84 11.48 9.86 36.50 11.84 91.0 Not Reported 0.00 NW 0.00 NW 1.34 NW No 0.000 No Precipitation 03/25/2020 01:58 PM 03/25/2020 02:03 PM 0.000 0.000 0.000 0.000 0.169 Not Reported Not Reported
03/26/2020 04:38 AM 12.02 11.66 10.04 36.50 11.66 91.0 Not Reported 0.45 N 0.00 N 1.34 N No 0.000 No Precipitation 03/25/2020 01:58 PM 03/25/2020 02:03 PM 0.000 0.000 0.000 0.000 0.169 Not Reported Not Reported
03/26/2020 04:53 AM 11.30 10.94 9.32 36.50 11.30 91.0 Not Reported 0.67 NW 0.00 NW 0.89 NW No 0.000 No Precipitation 03/25/2020 01:58 PM 03/25/2020 02:03 PM 0.000 0.000 0.000 0.000 0.169 Not Reported Not Reported
03/26/2020 05:08 AM 10.94 10.40 8.78 36.50 10.94 91.0 Not Reported 0.00 S 0.00 S 0.45 NW No 0.000 No Precipitation 03/25/2020 01:58 PM 03/25/2020 02:03 PM 0.000 0.000 0.000 0.000 0.169 Not Reported Not Reported
03/26/2020 05:23 AM 10.94 10.58 8.96 36.50 10.76 91.0 Not Reported 0.00 N 1.12 NW 1.34 NW No 0.000 No Precipitation 03/25/2020 01:58 PM 03/25/2020 02:03 PM 0.000 0.000 0.000 0.000 0.169 Not Reported Not Reported
03/26/2020 05:38 AM 10.94 10.40 8.78 36.50 10.76 91.0 Not Reported 0.89 N 0.89 N 1.34 N No 0.000 No Precipitation 03/25/2020 01:58 PM 03/25/2020 02:03 PM 0.000 0.000 0.000 0.000 0.169 Not Reported Not Reported
03/26/2020 05:53 AM 10.58 10.22 8.60 36.50 10.58 90.0 Not Reported 0.00 N 0.00 N 0.00 N No 0.000 No Precipitation 03/25/2020 01:58 PM 03/25/2020 02:03 PM 0.000 0.000 0.000 0.000 0.169 Not Reported Not Reported
03/26/2020 06:08 AM 10.22 9.86 8.06 36.50 10.22 90.0 Not Reported 0.00 N 0.00 N 0.45 N No 0.000 No Precipitation 03/25/2020 01:58 PM 03/25/2020 02:03 PM 0.000 0.000 0.000 0.000 0.169 Not Reported Not Reported
03/26/2020 06:23 AM 10.40 9.86 8.24 36.50 10.22 90.0 Not Reported 0.00 N 0.89 NW 0.89 NW No 0.000 No Precipitation 03/25/2020 01:58 PM 03/25/2020 02:03 PM 0.000 0.000 0.000 0.000 0.169 Not Reported Not Reported
03/26/2020 06:38 AM 10.94 10.58 8.96 36.50 10.22 90.0 Not Reported 0.89 NW 0.67 NW 1.12 NW No 0.000 No Precipitation 03/25/2020 01:58 PM 03/25/2020 02:03 PM 0.000 0.000 0.000 0.000 0.165 Not Reported Not Reported
03/26/2020 06:53 AM 10.76 10.22 8.60 36.50 10.22 91.0 Not Reported 0.00 N 0.00 NW 0.00 NW No 0.000 No Precipitation 03/25/2020 01:58 PM 03/25/2020 02:03 PM 0.000 0.000 0.000 0.000 0.165 Not Reported Not Reported
03/26/2020 07:08 AM 10.58 10.22 8.42 36.50 10.22 90.0 Not Reported 0.00 NW 0.67 NW 0.67 NW No 0.000 No Precipitation 03/25/2020 01:58 PM 03/25/2020 02:03 PM 0.000 0.000 0.000 0.000 0.165 Not Reported Not Reported
03/26/2020 07:23 AM 10.76 10.22 8.60 36.50 10.22 90.0 Not Reported 0.67 NW 0.67 NW 0.89 NW No 0.000 No Precipitation 03/25/2020 01:58 PM 03/25/2020 02:03 PM 0.000 0.000 0.000 0.000 0.165 Not Reported Not Reported
03/26/2020 07:38 AM 11.84 11.30 9.68 36.50 10.22 90.0 Not Reported 0.22 NW 0.00 NW 1.57 NW No 0.000 No Precipitation 03/25/2020 01:58 PM 03/25/2020 02:03 PM 0.000 0.000 0.000 0.000 0.165 Not Reported Not Reported
03/26/2020 07:53 AM 13.28 12.74 11.30 36.50 10.22 91.0 Not Reported 0.00 N 0.00 NW 0.00 NW No 0.000 No Precipitation 03/25/2020 01:58 PM 03/25/2020 02:03 PM 0.000 0.000 0.000 0.000 0.165 Not Reported Not Reported
03/26/2020 08:08 AM 15.08 14.72 13.28 36.50 10.22 92.0 Not Reported 0.00 N 0.00 N 0.00 NW No 0.000 No Precipitation 03/25/2020 01:58 PM 03/25/2020 02:03 PM 0.000 0.000 0.000 0.000 0.165 Not Reported Not Reported
03/26/2020 08:23 AM 16.34 15.98 14.54 36.50 10.22 92.0 Not Reported 0.00 N 0.00 SE 0.00 NW No 0.000 No Precipitation 03/25/2020 01:58 PM 03/25/2020 02:03 PM 0.000 0.000 0.000 0.000 0.165 Not Reported Not Reported
03/26/2020 08:38 AM 18.86 18.32 17.06 36.50 10.22 92.0 Not Reported 0.00 N 0.00 SE 0.00 NW No 0.000 No Precipitation 03/25/2020 01:58 PM 03/25/2020 02:03 PM 0.000 0.000 0.000 0.000 0.154 Not Reported Not Reported
03/26/2020 08:53 AM 22.46 22.10 20.84 36.50 10.22 93.0 Not Reported 0.00 N 0.00 SE 0.00 NW No 0.000 No Precipitation 03/25/2020 01:58 PM 03/25/2020 02:03 PM 0.000 0.000 0.000 0.000 0.142 Not Reported Not Reported
03/26/2020 09:08 AM 25.52 24.44 21.92 36.50 10.22 86.0 Not Reported 1.57 SE 2.46 S 2.46 S No 0.000 No Precipitation 03/25/2020 01:58 PM 03/25/2020 02:03 PM 0.000 0.000 0.000 0.000 0.126 Not Reported Not Reported
03/26/2020 09:23 AM 28.22 25.52 19.94 36.50 10.22 70.0 Not Reported 1.12 SE 3.13 S 3.13 SE No 0.000 No Precipitation 03/25/2020 01:58 PM 03/25/2020 02:03 PM 0.000 0.000 0.000 0.000 0.102 Not Reported Not Reported
03/26/2020 09:38 AM 29.12 25.52 17.24 36.50 10.22 60.0 Not Reported 2.46 SE 2.24 E 3.36 E No 0.000 No Precipitation 03/25/2020 01:58 PM 03/25/2020 02:03 PM 0.000 0.000 0.000 0.000 0.091 Not Reported Not Reported
03/26/2020 09:53 AM 30.02 25.70 16.16 36.50 10.22 55.0 Not Reported 2.01 SE 1.57 E 4.03 SE No 0.000 No Precipitation 03/25/2020 01:58 PM 03/25/2020 02:03 PM 0.000 0.000 0.000 0.000 0.091 Not Reported Not Reported
03/26/2020 10:08 AM 31.10 26.42 16.34 36.50 10.22 54.0 Not Reported 1.57 SE 1.12 E 3.80 S No 0.000 No Precipitation 03/25/2020 01:58 PM 03/25/2020 02:03 PM 0.000 0.000 0.000 0.000 0.083 Not Reported Not Reported
03/26/2020 10:23 AM 30.92 25.88 14.18 36.50 10.22 49.0 Not Reported 1.12 NE 2.24 SE 4.25 SE No 0.000 No Precipitation 03/25/2020 01:58 PM 03/25/2020 02:03 PM 0.000 0.000 0.000 0.000 0.067 Not Reported Not Reported
03/26/2020 10:39 AM 32.00 26.60 14.54 36.50 10.22 48.0 Not Reported 1.57 N 0.45 N 2.91 NE No 0.000 No Precipitation 03/25/2020 01:58 PM 03/25/2020 02:03 PM 0.000 0.000 0.000 0.000 0.055 Not Reported Not Reported
03/26/2020 10:53 AM 32.18 26.96 14.72 36.50 10.22 47.0 Not Reported 1.12 S 4.70 SE 5.82 S No 0.000 No Precipitation 03/25/2020 01:58 PM 03/25/2020 02:03 PM 0.000 0.000 0.000 0.000 0.051 Not Reported Not Reported
03/26/2020 11:08 AM 33.62 27.86 14.36 36.50 10.22 44.0 Not Reported 0.67 NE 0.89 NW 5.37 E No 0.000 No Precipitation 03/25/2020 01:58 PM 03/25/2020 02:03 PM 0.000 0.000 0.000 0.000 0.039 Not Reported Not Reported
03/26/2020 11:23 AM 34.88 28.40 13.10 36.68 10.22 39.0 Not Reported 0.67 E 2.46 SW 3.13 SE No 0.000 No Precipitation 03/25/2020 01:58 PM 03/25/2020 02:03 PM 0.000 0.000 0.000 0.000 0.039 Not Reported Not Reported
03/26/2020 11:38 AM 36.68 29.84 14.90 36.68 10.22 40.0 Not Reported 1.12 S 0.89 E 4.25 S No 0.000 No Precipitation 03/25/2020 01:58 PM 03/25/2020 02:03 PM 0.000 0.000 0.000 0.000 0.031 Not Reported Not Reported
03/26/2020 11:53 AM 35.96 29.48 15.44 38.30 10.22 42.0 Not Reported 3.13 S 4.25 SE 5.82 SE No 0.000 No Precipitation 03/25/2020 01:58 PM 03/25/2020 02:03 PM 0.000 0.000 0.000 0.000 0.016 Not Reported Not Reported
03/26/2020 12:09 PM 36.68 28.94 11.66 38.48 10.22 34.0 Not Reported 2.01 SE 2.68 S 4.92 SE No 0.000 No Precipitation 03/25/2020 01:58 PM 03/25/2020 02:03 PM 0.000 0.000 0.000 0.000 0.008 Not Reported Not Reported
03/26/2020 12:23 PM 37.22 30.02 14.00 40.82 10.22 37.0 Not Reported 2.68 W 1.34 SW 4.25 SE No 0.000 No Precipitation 03/25/2020 01:58 PM 03/25/2020 02:03 PM 0.000 0.000 0.000 0.000 0.004 Not Reported Not Reported
03/26/2020 12:38 PM 35.60 29.48 16.52 40.82 10.22 45.0 Not Reported 1.57 E 0.00 NW 5.37 E No 0.000 No Precipitation 03/25/2020 01:58 PM 03/25/2020 02:03 PM 0.000 0.000 0.000 0.000 0.004 Not Reported Not Reported
03/26/2020 12:53 PM 36.86 30.38 16.52 40.82 10.22 42.0 Not Reported 1.12 S 1.12 SE 2.91 SE No 0.000 No Precipitation 03/25/2020 01:58 PM 03/25/2020 02:03 PM 0.000 0.000 0.000 0.000 0.004 Not Reported Not Reported
03/26/2020 01:09 PM 35.78 29.48 17.24 40.82 10.22 46.0 Not Reported 2.24 SE 1.34 SE 4.03 N No 0.000 No Precipitation 03/25/2020 01:58 PM 03/25/2020 02:03 PM 0.000 0.000 0.000 0.000 0.004 Not Reported Not Reported
03/26/2020 01:23 PM 34.52 29.30 18.14 40.82 10.22 50.0 Not Reported 3.36 NW 5.14 NW 5.37 NW No 0.000 No Precipitation 03/25/2020 01:58 PM 03/25/2020 02:03 PM 0.000 0.000 0.000 0.000 0.004 Not Reported Not Reported
03/26/2020 01:39 PM 37.04 30.38 15.62 40.82 10.22 41.0 Not Reported 2.46 E 0.67 SE 4.25 NE No 0.000 No Precipitation 03/25/2020 01:58 PM 03/25/2020 02:03 PM 0.000 0.000 0.000 0.000 0.004 Not Reported Not Reported
03/26/2020 01:53 PM 37.58 30.38 15.26 40.82 10.22 39.0 Not Reported 4.03 SE 4.47 SE 6.49 SE No 0.000 No Precipitation 03/25/2020 01:58 PM 03/25/2020 02:03 PM 0.000 0.000 0.000 0.000 0.004 Not Reported Not Reported
03/26/2020 02:08 PM 35.24 28.94 15.08 40.82 10.22 42.0 Not Reported 4.03 NW 2.68 NW 5.59 NW No 0.000 No Precipitation 03/25/2020 01:58 PM 03/25/2020 02:03 PM 0.000 0.000 0.000 0.000 0.000 Not Reported Not Reported
03/26/2020 02:23 PM 35.78 29.66 16.34 40.82 10.22 44.0 Not Reported 0.89 E 1.34 SE 5.14 NW No 0.000 No Precipitation 03/25/2020 01:58 PM 03/25/2020 02:03 PM 0.000 0.000 0.000 0.000 0.000 Not Reported Not Reported
03/26/2020 02:38 PM 38.30 31.10 15.98 40.82 10.22 39.0 Not Reported 3.36 SE 3.58 E 4.03 SE No 0.000 No Precipitation 03/25/2020 01:58 PM 03/25/2020 02:03 PM 0.000 0.000 0.000 0.000 0.000 Not Reported Not Reported
03/26/2020 02:53 PM 38.30 30.92 15.26 40.82 10.22 38.0 Not Reported 3.13 N 0.67 W 5.59 N No 0.000 No Precipitation 03/25/2020 01:58 PM 03/25/2020 02:03 PM 0.000 0.000 0.000 0.000 0.000 Not Reported Not Reported
03/26/2020 03:08 PM 36.14 29.30 14.00 40.82 10.22 39.0 Not Reported 2.24 NW 2.91 E 4.03 N No 0.000 No Precipitation 03/25/2020 01:58 PM 03/25/2020 02:03 PM 0.000 0.000 0.000 0.000 0.000 Not Reported Not Reported
03/26/2020 03:23 PM 37.76 30.56 15.44 40.82 10.22 39.0 Not Reported 3.58 W 3.58 NW 5.59 W No 0.000 No Precipitation 03/25/2020 01:58 PM 03/25/2020 02:03 PM 0.000 0.000 0.000 0.000 0.000 Not Reported Not Reported
03/26/2020 03:38 PM 39.74 30.92 10.76 40.82 10.22 29.0 Not Reported 1.57 SE 3.58 SE 3.58 SE No 0.000 No Precipitation 03/25/2020 01:58 PM 03/25/2020 02:03 PM 0.000 0.000 0.000 0.000 0.000 Not Reported Not Reported
03/26/2020 03:53 PM 36.68 29.30 12.38 40.82 10.22 36.0 Not Reported 0.22 N 2.68 N 4.25 NW No 0.000 No Precipitation 03/25/2020 01:58 PM 03/25/2020 02:03 PM 0.000 0.000 0.000 0.000 0.000 Not Reported Not Reported
03/26/2020 04:09 PM 35.60 29.30 15.80 40.82 10.22 43.0 Not Reported 1.12 W 1.79 W 4.70 N No 0.000 No Precipitation 03/25/2020 01:58 PM 03/25/2020 02:03 PM 0.000 0.000 0.000 0.000 0.000 Not Reported Not Reported
03/26/2020 04:23 PM 35.42 29.12 15.44 40.82 10.22 43.0 Not Reported 0.45 W 0.67 W 2.91 NW No 0.000 No Precipitation 03/25/2020 01:58 PM 03/25/2020 02:03 PM 0.000 0.000 0.000 0.000 0.000 Not Reported Not Reported
03/26/2020 04:38 PM 33.26 30.02 23.90 40.82 10.22 68.0 Not Reported 1.34 NW 0.89 NW 2.01 NW No 0.000 No Precipitation 03/25/2020 01:58 PM 03/25/2020 02:03 PM 0.000 0.000 0.000 0.000 0.000 Not Reported Not Reported
03/26/2020 04:53 PM 39.02 30.74 12.56 40.82 10.22 33.0 Not Reported 0.67 W 0.00 W 2.46 SW No 0.000 No Precipitation 03/25/2020 01:58 PM 03/25/2020 02:03 PM 0.000 0.000 0.000 0.000 0.000 Not Reported Not Reported
03/26/2020 05:08 PM 33.98 30.74 24.80 40.82 10.22 68.0 Not Reported 1.79 NW 2.24 N 2.24 N No 0.000 No Precipitation 03/25/2020 01:58 PM 03/25/2020 02:03 PM 0.000 0.000 0.000 0.000 0.000 Not Reported Not Reported
03/26/2020 05:23 PM 36.86 30.02 15.08 40.82 10.22 40.0 Not Reported 0.67 SW 0.22 S 2.68 NW No 0.000 No Precipitation 03/25/2020 01:58 PM 03/25/2020 02:03 PM 0.000 0.000 0.000 0.000 0.000 Not Reported Not Reported
03/26/2020 05:38 PM 32.00 29.66 24.98 40.82 10.22 74.0 Not Reported 2.68 NW 3.13 NW 4.03 NW No 0.000 No Precipitation 03/25/2020 01:58 PM 03/25/2020 02:03 PM 0.000 0.000 0.000 0.000 0.000 Not Reported Not Reported
03/26/2020 05:53 PM 32.54 29.48 23.36 40.82 10.22 67.0 Not Reported 1.57 NW 1.57 W 2.24 W No 0.000 No Precipitation 03/25/2020 01:58 PM 03/25/2020 02:03 PM 0.000 0.000 0.000 0.000 0.000 Not Reported Not Reported
03/26/2020 06:08 PM 32.00 29.30 24.26 40.82 10.22 73.0 Not Reported 1.12 NW 0.67 NW 3.36 NW No 0.000 No Precipitation 03/25/2020 01:58 PM 03/25/2020 02:03 PM 0.000 0.000 0.000 0.000 0.000 Not Reported Not Reported
03/26/2020 06:23 PM 29.84 28.04 24.62 40.82 10.22 80.0 Not Reported 2.24 NW 2.68 NW 3.13 NW No 0.000 No Precipitation 03/25/2020 01:58 PM 03/25/2020 02:03 PM 0.000 0.000 0.000 0.000 0.000 Not Reported Not Reported
03/26/2020 06:38 PM 30.20 27.68 23.18 40.82 10.22 75.0 Not Reported 1.79 NW 3.13 N 4.47 NW No 0.000 No Precipitation 03/25/2020 01:58 PM 03/25/2020 02:03 PM 0.000 0.000 0.000 0.000 0.000 Not Reported Not Reported
03/26/2020 06:53 PM 28.40 27.32 25.16 40.82 10.22 87.0 Not Reported 1.57 NW 1.57 N 2.01 NW No 0.000 No Precipitation 03/25/2020 01:58 PM 03/25/2020 02:03 PM 0.000 0.000 0.000 0.000 0.000 Not Reported Not Reported
03/26/2020 07:08 PM 27.68 26.60 24.80 40.82 10.22 88.0 Not Reported 2.46 N 2.46 N 2.91 NW No 0.000 No Precipitation 03/25/2020 01:58 PM 03/25/2020 02:03 PM 0.000 0.000 0.000 0.000 0.000 Not Reported Not Reported
03/26/2020 07:23 PM 27.32 26.24 24.08 40.82 10.22 86.0 Not Reported 1.12 NW 2.46 NW 3.13 NW No 0.000 No Precipitation 03/25/2020 01:58 PM 03/25/2020 02:03 PM 0.000 0.000 0.000 0.000 0.000 Not Reported Not Reported
03/26/2020 07:39 PM 26.24 25.34 23.72 40.82 10.22 89.0 Not Reported 0.45 W 0.22 W 2.68 NW No 0.000 No Precipitation 03/25/2020 01:58 PM 03/25/2020 02:03 PM 0.000 0.000 0.000 0.000 0.000 Not Reported Not Reported
03/26/2020 07:53 PM 25.34 24.62 23.18 40.82 10.22 91.0 Not Reported 1.12 NW 0.67 NW 1.34 NW No 0.000 No Precipitation 03/25/2020 01:58 PM 03/25/2020 02:03 PM 0.000 0.000 0.000 0.000 0.000 Not Reported Not Reported
03/26/2020 08:08 PM 24.98 24.26 22.82 40.82 10.22 91.0 Not Reported 0.22 NW 0.00 NW 0.89 NW No 0.000 No Precipitation 03/25/2020 01:58 PM 03/25/2020 02:03 PM 0.000 0.000 0.000 0.000 0.000 Not Reported Not Reported
03/26/2020 08:23 PM 24.08 23.54 22.10 40.82 10.22 91.0 Not Reported 0.00 N 0.00 NW 0.22 NW No 0.000 No Precipitation 03/25/2020 01:58 PM 03/25/2020 02:03 PM 0.000 0.000 0.000 0.000 0.000 Not Reported Not Reported
03/26/2020 08:39 PM 23.72 23.00 21.92 40.82 10.22 92.0 Not Reported 0.67 W 0.89 NW 0.89 NW No 0.000 No Precipitation 03/25/2020 01:58 PM 03/25/2020 02:03 PM 0.000 0.000 0.000 0.000 0.000 Not Reported Not Reported
03/26/2020 08:53 PM 23.18 22.64 21.38 40.82 10.22 92.0 Not Reported 0.45 NW 1.12 NW 1.12 NW No 0.000 No Precipitation 03/25/2020 01:58 PM 03/25/2020 02:03 PM 0.000 0.000 0.000 0.000 0.000 Not Reported Not Reported
03/26/2020 09:08 PM 22.82 22.28 21.02 40.82 10.22 93.0 Not Reported 0.67 NW 0.22 NW 0.67 NW No 0.000 No Precipitation 03/25/2020 01:58 PM 03/25/2020 02:03 PM 0.000 0.000 0.000 0.000 0.000 Not Reported Not Reported
03/26/2020 09:23 PM 22.28 21.74 20.48 40.82 10.22 92.0 Not Reported 0.22 NW 0.22 NW 1.12 NW No 0.000 No Precipitation 03/25/2020 01:58 PM 03/25/2020 02:03 PM 0.000 0.000 0.000 0.000 0.000 Not Reported Not Reported
03/26/2020 09:39 PM 21.74 21.38 20.12 40.82 10.22 93.0 Not Reported 0.00 N 0.00 NW 0.45 NW No 0.000 No Precipitation 03/25/2020 01:58 PM 03/25/2020 02:03 PM 0.000 0.000 0.000 0.000 0.000 Not Reported Not Reported
03/26/2020 09:53 PM 21.38 20.84 19.76 40.82 10.22 93.0 Not Reported 0.00 N 0.67 NE 0.67 NE No 0.000 No Precipitation 03/25/2020 01:58 PM 03/25/2020 02:03 PM 0.000 0.000 0.000 0.000 0.000 Not Reported Not Reported
03/26/2020 10:08 PM 21.02 20.48 19.40 40.82 10.22 93.0 Not Reported 0.00 NW 0.45 NW 1.12 N No 0.000 No Precipitation 03/25/2020 01:58 PM 03/25/2020 02:03 PM 0.000 0.000 0.000 0.000 0.000 Not Reported Not Reported
03/26/2020 10:23 PM 20.66 20.30 19.22 40.82 10.22 93.0 Not Reported 0.00 N 0.00 N 0.22 N No 0.000 No Precipitation 03/25/2020 01:58 PM 03/25/2020 02:03 PM 0.000 0.000 0.000 0.000 0.000 Not Reported Not Reported
03/26/2020 10:38 PM 20.12 19.76 18.86 40.82 10.22 94.0 Not Reported 0.22 NW 0.00 NW 0.67 NW No 0.000 No Precipitation 03/25/2020 01:58 PM 03/25/2020 02:03 PM 0.000 0.000 0.000 0.000 0.000 Not Reported Not Reported
03/26/2020 10:53 PM 19.94 19.58 18.68 40.82 10.22 94.0 Not Reported 0.89 NW 0.00 N 1.34 NW No 0.000 No Precipitation 03/25/2020 01:58 PM 03/25/2020 02:03 PM 0.000 0.000 0.000 0.000 0.000 Not Reported Not Reported
03/26/2020 11:08 PM 19.58 19.22 18.32 40.82 10.22 94.0 Not Reported 0.67 NW 0.45 NW 1.34 NE No 0.000 No Precipitation 03/25/2020 01:58 PM 03/25/2020 02:03 PM 0.000 0.000 0.000 0.000 0.000 Not Reported Not Reported
03/26/2020 11:23 PM 19.40 19.04 18.14 40.82 10.22 94.0 Not Reported 2.01 NW 1.12 NW 2.46 N No 0.000 No Precipitation 03/25/2020 01:58 PM 03/25/2020 02:03 PM 0.000 0.000 0.000 0.000 0.000 Not Reported Not Reported
03/26/2020 11:40 PM 18.68 18.32 17.42 40.82 10.22 94.0 Not Reported 1.34 NW 1.57 NW 1.79 NW No 0.000 No Precipitation 03/25/2020 01:58 PM 03/25/2020 02:03 PM 0.000 0.000 0.000 0.000 0.000 Not Reported Not Reported
03/26/2020 11:53 PM 18.50 18.14 17.24 40.82 10.22 95.0 Not Reported 1.34 NW 0.89 NW 1.79 NW No 0.000 No Precipitation 03/25/2020 01:58 PM 03/25/2020 02:03 PM 0.000 0.000 0.000 0.000 0.000 Not Reported Not Reported